Погода Хабелицена 2 недели

Лодзинское воеводство, Польша

22 июля-04 августа
  • 22июля
    Сегодня
    +17°
    +31°
    Практически безоблачно
    ВремяПогодаТемператураВлажностьДавлениеВетер, м/сВероятность осадков
    02:00Ясно и безоблачно+21°C69 %737 мм3.1 м/с2 %
    05:00Ясно и безоблачно+18°C80 %737 мм2.5 м/с2 %
    08:00Ясно и безоблачно+24°C62 %738 мм2.5 м/с2 %
    11:00Практически безоблачно+30°C33 %738 мм2.7 м/с2 %
    14:00Практически безоблачно+31°C28 %738 мм2.3 м/с2 %
    17:00Облачно с прояснениями+27°C39 %738 мм4.8 м/с8 %
    20:00Облачно с прояснениями+24°C65 %739 мм5.0 м/с20 %
    23:00Облачно с прояснениями+20°C81 %740 мм3.3 м/с7 %
  • 23июля
    Вторник
    +14°
    +26°
    Облачно с прояснениями
    ВремяПогодаТемператураВлажностьДавлениеВетер, м/сВероятность осадков
    02:00Ясно и безоблачно+19°C89 %741 мм3.5 м/с3 %
    05:00Практически безоблачно+17°C96 %742 мм2.6 м/с4 %
    08:00Практически безоблачно+20°C75 %742 мм2.9 м/с7 %
    11:00Облачно с прояснениями+23°C50 %742 мм4.0 м/с6 %
    14:00Облачно с прояснениями+24°C43 %741 мм4.3 м/с2 %
    17:00Небольшая облачность+26°C38 %741 мм3.8 м/с2 %
    20:00Ясно и безоблачно+23°C42 %741 мм2.7 м/с2 %
    23:00Ясно и безоблачно+18°C61 %740 мм2.3 м/с2 %
  • 24июля
    Среда
    +13°
    +23°
    Пасмурно, ливень
    ВремяПогодаТемператураВлажностьДавлениеВетер, м/сВероятность осадков
    02:00Ясно и безоблачно+16°C64 %740 мм1.1 м/с2 %
    05:00Облачно с прояснениями+15°C78 %739 мм1.6 м/с2 %
    08:00Пасмурно, сплошная облачность+19°C53 %739 мм1.7 м/с13 %
    11:00Облачно с прояснениями+20°C50 %739 мм3.0 м/с30 %
    14:00Пасмурно, ливень+21°C71 %739 мм3.2 м/с62 %
    17:00Пасмурно, ливень+20°C74 %739 мм3.6 м/с77 %
    20:00Облачно с прояснениями, небольшой дождь+20°C72 %739 мм3.9 м/с64 %
    23:00Практически безоблачно+16°C89 %739 мм3.5 м/с46 %
  • 25июля
    Четверг
    +12°
    +23°
    Практически безоблачно
    ВремяПогодаТемператураВлажностьДавлениеВетер, м/сВероятность осадков
    02:00Практически безоблачно+15°C93 %739 мм4.1 м/с29 %
    05:00Ясно и безоблачно+14°C96 %739 мм3.7 м/с34 %
    08:00Ясно и безоблачно+17°C77 %739 мм4.9 м/с40 %
    11:00Практически безоблачно+20°C48 %739 мм6.0 м/с43 %
    14:00Практически безоблачно+22°C36 %739 мм5.6 м/с42 %
    17:00Облачно с прояснениями+22°C33 %738 мм5.1 м/с40 %
    20:00Ясно и безоблачно+21°C45 %739 мм4.4 м/с29 %
    23:00Ясно и безоблачно+17°C67 %739 мм3.2 м/с10 %
  • 26июля
    Пятница
    +13°
    +25°
    Практически безоблачно
    ВремяПогодаТемператураВлажностьДавлениеВетер, м/сВероятность осадков
    02:00Практически безоблачно+15°C85 %739 мм3.2 м/с6 %
    05:00Ясно и безоблачно+13°C95 %739 мм2.6 м/с6 %
    08:00Ясно и безоблачно+17°C80 %740 мм2.6 м/с2 %
    11:00Ясно и безоблачно+21°C52 %741 мм3.0 м/с35 %
    14:00Практически безоблачно+24°C36 %740 мм3.1 м/с25 %
    17:00Ясно и безоблачно+24°C33 %740 мм2.7 м/с29 %
    20:00Ясно и безоблачно+22°C44 %740 мм1.0 м/с12 %
    23:00Практически безоблачно+17°C62 %741 мм1.9 м/с2 %
Мы используем cookies
Соглашаюсь